createdAt,value
2022-09-04T00:00:18.865Z,19.86
2022-09-04T00:02:58.726Z,19.77
2022-09-04T00:05:37.507Z,19.99
2022-09-04T00:08:12.380Z,20.02
2022-09-04T00:11:16.673Z,19.78
2022-09-04T00:13:51.727Z,19.75
2022-09-04T00:16:23.101Z,19.90
2022-09-04T00:18:56.828Z,19.90
2022-09-04T00:21:30.900Z,19.82
2022-09-04T00:24:05.663Z,19.74
2022-09-04T00:26:56.854Z,19.71
2022-09-04T00:30:01.880Z,19.74
2022-09-04T00:32:39.877Z,19.61
2022-09-04T00:35:24.200Z,19.62
2022-09-04T00:38:21.552Z,19.72
2022-09-04T00:41:11.404Z,19.84
2022-09-04T00:43:43.968Z,19.76
2022-09-04T00:46:48.550Z,19.69
2022-09-04T00:49:38.103Z,19.69
2022-09-04T00:52:35.337Z,19.70
2022-09-04T00:55:25.156Z,19.68
2022-09-04T00:58:09.140Z,19.70
2022-09-04T01:00:36.408Z,19.69
2022-09-04T01:03:18.376Z,19.66
2022-09-04T01:06:13.891Z,19.58
2022-09-04T01:09:14.236Z,19.50
2022-09-04T01:11:50.595Z,19.43
2022-09-04T01:14:38.352Z,19.26
2022-09-04T01:17:24.179Z,19.35
2022-09-04T01:20:13.023Z,19.30
2022-09-04T01:22:59.607Z,19.20
2022-09-04T01:26:04.053Z,19.25
2022-09-04T01:28:48.008Z,19.27
2022-09-04T01:31:39.610Z,19.09
2022-09-04T01:34:25.350Z,19.28
2022-09-04T01:37:14.693Z,19.31
2022-09-04T01:39:46.775Z,19.38
2022-09-04T01:42:43.285Z,19.54
2022-09-04T01:45:10.965Z,19.52
2022-09-04T01:47:46.741Z,19.47
2022-09-04T01:50:20.540Z,19.47
2022-09-04T01:53:12.656Z,19.38
2022-09-04T01:55:55.806Z,19.38
2022-09-04T01:58:35.390Z,19.38
2022-09-04T02:01:16.416Z,19.44
2022-09-04T02:03:56.315Z,19.43
2022-09-04T02:06:44.991Z,19.36
2022-09-04T02:09:33.384Z,19.22
2022-09-04T02:12:21.085Z,19.21
2022-09-04T02:15:29.494Z,19.04
2022-09-04T02:18:19.941Z,18.97
2022-09-04T02:20:59.884Z,19.01
2022-09-04T02:23:37.648Z,19.07
2022-09-04T02:26:17.125Z,19.10
2022-09-04T02:28:58.095Z,19.33
2022-09-04T02:31:33.537Z,19.51
2022-09-04T02:34:15.395Z,19.43
2022-09-04T02:37:08.659Z,19.42
2022-09-04T02:39:49.153Z,19.36
2022-09-04T02:42:41.094Z,19.41
2022-09-04T02:45:07.647Z,19.41
2022-09-04T02:48:01.478Z,19.43
2022-09-04T02:50:46.206Z,19.46
2022-09-04T02:53:37.845Z,19.47
2022-09-04T02:56:21.076Z,19.44
2022-09-04T02:58:54.095Z,19.40
2022-09-04T03:01:37.590Z,19.44
2022-09-04T03:04:19.594Z,19.53
2022-09-04T03:06:54.239Z,19.61
2022-09-04T03:09:32.311Z,19.59
2022-09-04T03:12:23.254Z,19.67
2022-09-04T03:15:16.524Z,19.61
2022-09-04T03:17:58.726Z,19.64
2022-09-04T03:20:28.878Z,19.65
2022-09-04T03:23:04.485Z,19.56
2022-09-04T03:25:59.043Z,19.58
2022-09-04T03:28:35.969Z,19.66
2022-09-04T03:31:31.467Z,19.70
2022-09-04T03:34:19.938Z,19.71
2022-09-04T03:37:07.469Z,19.73
2022-09-04T03:39:53.977Z,19.62
2022-09-04T03:42:43.512Z,19.45
2022-09-04T03:45:37.687Z,19.32
2022-09-04T03:48:23.209Z,19.34
2022-09-04T03:51:10.868Z,19.39
2022-09-04T03:53:44.044Z,19.49
2022-09-04T03:56:31.830Z,19.47
2022-09-04T03:59:04.175Z,19.39
2022-09-04T04:01:52.013Z,19.37
2022-09-04T04:04:36.052Z,19.21
2022-09-04T04:07:19.840Z,19.25
2022-09-04T04:10:20.977Z,19.28
2022-09-04T04:13:12.322Z,19.39
2022-09-04T04:16:28.121Z,19.46
2022-09-04T04:19:33.724Z,19.42
2022-09-04T04:22:19.235Z,19.32
2022-09-04T04:25:33.880Z,19.31
2022-09-04T04:28:19.879Z,19.28
2022-09-04T04:30:57.323Z,19.38
2022-09-04T04:33:42.373Z,19.35
2022-09-04T04:36:24.607Z,19.27
2022-09-04T04:39:04.646Z,19.32
2022-09-04T04:42:06.167Z,19.39
2022-09-04T04:45:14.009Z,19.34
2022-09-04T04:48:19.776Z,19.21
2022-09-04T04:51:32.115Z,19.20
2022-09-04T04:54:27.573Z,19.20
2022-09-04T04:57:26.815Z,19.26
2022-09-04T04:59:55.761Z,19.19
2022-09-04T05:02:31.052Z,19.16
2022-09-04T05:05:19.493Z,19.19
2022-09-04T05:08:22.460Z,19.13
2022-09-04T05:10:56.372Z,19.06
2022-09-04T05:13:33.139Z,19.08
2022-09-04T05:16:19.063Z,19.23
2022-09-04T05:19:16.482Z,19.18
2022-09-04T05:21:50.032Z,19.25
2022-09-04T05:24:35.100Z,19.16
2022-09-04T05:27:31.283Z,19.15
2022-09-04T05:30:09.102Z,19.20
2022-09-04T05:32:48.942Z,19.17
2022-09-04T05:35:23.209Z,19.15
2022-09-04T05:38:16.101Z,19.24
2022-09-04T05:41:06.200Z,19.32
2022-09-04T05:44:08.142Z,19.27
2022-09-04T05:46:51.742Z,19.26
2022-09-04T05:49:27.661Z,19.32
2022-09-04T05:52:09.048Z,19.19
2022-09-04T05:55:10.621Z,19.16
2022-09-04T05:57:56.460Z,19.32
2022-09-04T06:00:23.153Z,19.23
2022-09-04T06:03:30.177Z,19.55
2022-09-04T06:06:06.786Z,19.36
2022-09-04T06:08:51.788Z,19.17
2022-09-04T06:11:51.410Z,19.05
2022-09-04T06:14:49.348Z,19.08
2022-09-04T06:17:53.567Z,19.23
2022-09-04T06:20:40.745Z,19.35
2022-09-04T06:23:18.261Z,19.43
2022-09-04T06:26:06.486Z,19.58
2022-09-04T06:28:43.672Z,19.54
2022-09-04T06:31:18.753Z,19.66
2022-09-04T06:33:53.052Z,19.72
2022-09-04T06:36:40.790Z,19.85
2022-09-04T06:39:30.119Z,20.00
2022-09-04T06:41:56.671Z,20.04
2022-09-04T06:44:41.078Z,19.93
2022-09-04T06:47:31.219Z,19.96
2022-09-04T06:50:08.756Z,19.84
2022-09-04T06:53:04.860Z,19.86
2022-09-04T06:55:50.033Z,20.16
2022-09-04T06:58:47.800Z,20.27
2022-09-04T07:01:40.450Z,19.84
2022-09-04T07:04:51.356Z,19.94
2022-09-04T07:07:27.465Z,20.08
2022-09-04T07:10:01.053Z,20.11
2022-09-04T07:12:50.207Z,19.68
2022-09-04T07:15:49.639Z,19.33
2022-09-04T07:18:54.416Z,19.37
2022-09-04T07:21:49.423Z,19.45
2022-09-04T07:24:49.384Z,19.64
2022-09-04T07:27:36.151Z,19.84
2022-09-04T07:30:13.515Z,20.05
2022-09-04T07:32:56.352Z,20.19
2022-09-04T07:35:36.908Z,20.29
2022-09-04T07:38:24.697Z,20.73
2022-09-04T07:40:58.790Z,20.88
2022-09-04T07:43:54.466Z,20.95
2022-09-04T07:46:33.520Z,21.01
2022-09-04T07:49:19.065Z,21.28
2022-09-04T07:51:54.848Z,21.38
2022-09-04T07:54:50.678Z,20.89
2022-09-04T07:57:32.023Z,20.59
2022-09-04T08:00:14.042Z,20.55
2022-09-04T08:03:02.794Z,20.65
2022-09-04T08:05:33.681Z,20.90
2022-09-04T08:08:03.726Z,20.62
2022-09-04T08:11:00.644Z,20.26
2022-09-04T08:13:35.333Z,20.37
2022-09-04T08:16:24.029Z,20.51
2022-09-04T08:18:57.628Z,20.77
2022-09-04T08:21:35.582Z,20.98
2022-09-04T08:24:20.213Z,21.22
2022-09-04T08:27:02.997Z,21.25
2022-09-04T08:29:50.555Z,21.21
2022-09-04T08:32:47.276Z,20.89
2022-09-04T08:35:19.360Z,20.70
2022-09-04T08:37:54.424Z,20.86
2022-09-04T08:40:53.509Z,21.09
2022-09-04T08:43:45.806Z,21.20
2022-09-04T08:46:34.595Z,21.42
2022-09-04T08:49:32.002Z,21.24
2022-09-04T08:52:25.662Z,20.83
2022-09-04T08:55:24.349Z,20.80
2022-09-04T08:58:24.226Z,21.02
2022-09-04T09:00:57.072Z,21.13
2022-09-04T09:03:50.966Z,21.24
2022-09-04T09:06:38.350Z,21.72
2022-09-04T09:09:46.614Z,22.16
2022-09-04T09:12:54.011Z,21.77
2022-09-04T09:15:51.131Z,21.99
2022-09-04T09:18:54.764Z,22.07
2022-09-04T09:21:44.773Z,21.87
2022-09-04T09:24:26.709Z,22.19
2022-09-04T09:27:11.713Z,21.88
2022-09-04T09:29:42.278Z,22.08
2022-09-04T09:32:40.557Z,21.96
2022-09-04T09:35:41.801Z,22.27
2022-09-04T09:38:34.800Z,22.46
2022-09-04T09:41:39.195Z,22.60
2022-09-04T09:44:27.023Z,22.35
2022-09-04T09:47:24.934Z,22.30
2022-09-04T09:50:22.706Z,22.51
2022-09-04T09:53:14.431Z,22.74
2022-09-04T09:56:13.708Z,22.71
2022-09-04T09:59:18.390Z,22.70
2022-09-04T10:02:22.839Z,22.38
2022-09-04T10:05:19.658Z,22.71
2022-09-04T10:07:57.912Z,23.02
2022-09-04T10:11:02.840Z,23.28
2022-09-04T10:13:51.096Z,23.51
2022-09-04T10:16:36.097Z,23.62
2022-09-04T10:19:20.653Z,23.79
2022-09-04T10:22:11.701Z,23.80
2022-09-04T10:25:07.396Z,23.73
2022-09-04T10:27:57.221Z,23.81
2022-09-04T10:30:24.551Z,23.97
2022-09-04T10:33:27.172Z,24.01
2022-09-04T10:36:30.832Z,24.16
2022-09-04T10:39:29.844Z,24.11
2022-09-04T10:42:11.141Z,24.07
2022-09-04T10:44:48.439Z,24.10
2022-09-04T10:47:38.075Z,24.04
2022-09-04T10:50:26.670Z,24.18
2022-09-04T10:53:03.013Z,24.39
2022-09-04T10:55:43.723Z,24.24
2022-09-04T10:58:58.059Z,24.22
2022-09-04T11:01:36.917Z,24.26
2022-09-04T11:04:22.444Z,24.24
2022-09-04T11:07:11.329Z,24.13
2022-09-04T11:10:05.460Z,24.10
2022-09-04T11:12:41.779Z,24.33
2022-09-04T11:15:26.590Z,24.12
2022-09-04T11:17:59.013Z,24.12
2022-09-04T11:21:02.947Z,24.08
2022-09-04T11:23:48.488Z,24.12
2022-09-04T11:26:39.910Z,24.16
2022-09-04T11:29:24.752Z,24.20
2022-09-04T11:32:24.037Z,24.60
2022-09-04T11:35:19.238Z,24.60
2022-09-04T11:38:43.597Z,24.52
2022-09-04T11:41:28.970Z,24.62
2022-09-04T11:44:25.137Z,24.78
2022-09-04T11:47:12.129Z,24.66
2022-09-04T11:49:50.943Z,24.53
2022-09-04T11:52:35.775Z,24.75
2022-09-04T11:55:20.824Z,24.69
2022-09-04T11:58:08.441Z,24.62
2022-09-04T12:00:58.307Z,24.39
2022-09-04T12:03:49.419Z,24.32
2022-09-04T12:06:35.297Z,24.47
2022-09-04T12:09:34.595Z,24.65
2022-09-04T12:12:16.478Z,24.78
2022-09-04T12:15:07.349Z,24.72
2022-09-04T12:18:09.763Z,24.63
2022-09-04T12:21:18.135Z,24.49
2022-09-04T12:24:04.822Z,24.52
2022-09-04T12:27:11.488Z,24.47
2022-09-04T12:29:59.803Z,24.50
2022-09-04T12:32:35.790Z,24.40
2022-09-04T12:35:32.010Z,24.51
2022-09-04T12:38:24.442Z,24.97
2022-09-04T12:41:17.800Z,24.76
2022-09-04T12:44:13.004Z,25.00
2022-09-04T12:46:55.865Z,25.12
2022-09-04T12:49:40.570Z,24.94
2022-09-04T12:52:36.518Z,24.48
2022-09-04T12:55:15.815Z,24.62
2022-09-04T12:57:57.357Z,25.01
2022-09-04T13:00:42.036Z,25.01
2022-09-04T13:03:28.541Z,24.99
2022-09-04T13:06:14.230Z,24.81
2022-09-04T13:09:12.878Z,24.81
2022-09-04T13:12:13.454Z,24.95
2022-09-04T13:15:11.098Z,24.91
2022-09-04T13:17:58.187Z,25.23
2022-09-04T13:20:40.156Z,25.30
2022-09-04T13:23:27.593Z,25.60
2022-09-04T13:26:34.318Z,25.58
2022-09-04T13:29:51.444Z,25.68
2022-09-04T13:32:35.362Z,25.60
2022-09-04T13:35:31.305Z,25.34
2022-09-04T13:38:18.761Z,25.41
2022-09-04T13:41:19.385Z,25.72
2022-09-04T13:43:46.011Z,25.90
2022-09-04T13:46:20.555Z,26.03
2022-09-04T13:48:52.841Z,26.06
2022-09-04T13:51:32.918Z,26.09
2022-09-04T13:54:05.057Z,26.00
2022-09-04T13:57:04.522Z,26.03
2022-09-04T13:59:31.907Z,26.26
2022-09-04T14:02:04.461Z,26.34
2022-09-04T14:04:36.555Z,26.55
2022-09-04T14:07:11.565Z,26.58
2022-09-04T14:09:43.826Z,26.68
2022-09-04T14:12:48.702Z,26.90
2022-09-04T14:15:32.817Z,27.07
2022-09-04T14:18:27.397Z,27.23
2022-09-04T14:21:03.481Z,27.48
2022-09-04T14:23:30.199Z,27.77
2022-09-04T14:26:12.462Z,27.94
2022-09-04T14:28:52.640Z,27.82
2022-09-04T14:31:32.773Z,27.97
2022-09-04T14:34:15.978Z,28.20
2022-09-04T14:37:01.289Z,28.24
2022-09-04T14:39:37.367Z,28.44
2022-09-04T14:42:22.145Z,28.81
2022-09-04T14:45:01.591Z,28.96
2022-09-04T14:47:45.077Z,29.06
2022-09-04T14:50:14.878Z,29.17
2022-09-04T14:52:43.403Z,29.50
2022-09-04T14:55:16.952Z,29.47
2022-09-04T14:57:59.873Z,29.73
2022-09-04T15:00:29.217Z,30.48
2022-09-04T15:03:05.312Z,30.27
2022-09-04T15:05:37.175Z,30.79
2022-09-04T15:08:07.836Z,30.81
2022-09-04T15:10:49.806Z,30.66
2022-09-04T15:13:51.653Z,30.46
2022-09-04T15:16:44.273Z,29.19
2022-09-04T15:19:32.621Z,29.04
2022-09-04T15:22:08.373Z,28.46
2022-09-04T15:24:48.314Z,28.63
2022-09-04T15:27:23.580Z,27.56
2022-09-04T15:29:53.285Z,27.13
2022-09-04T15:32:23.486Z,26.89
2022-09-04T15:35:05.668Z,26.51
2022-09-04T15:37:33.816Z,26.64
2022-09-04T15:40:12.768Z,26.69
2022-09-04T15:42:46.694Z,26.66
2022-09-04T15:45:23.489Z,26.36
2022-09-04T15:48:29.432Z,26.23
2022-09-04T15:51:10.072Z,26.50
2022-09-04T15:53:40.619Z,26.17
2022-09-04T15:56:29.383Z,25.99
2022-09-04T15:59:36.426Z,26.18
2022-09-04T16:02:20.654Z,26.03
2022-09-04T16:04:50.888Z,26.29
2022-09-04T16:07:36.715Z,26.26
2022-09-04T16:10:21.501Z,25.97
2022-09-04T16:12:56.735Z,26.15
2022-09-04T16:15:30.532Z,26.21
2022-09-04T16:18:02.396Z,26.33
2022-09-04T16:21:00.304Z,25.83
2022-09-04T16:23:33.668Z,26.09
2022-09-04T16:26:10.573Z,25.98
2022-09-04T16:28:51.322Z,26.06
2022-09-04T16:31:34.646Z,25.96
2022-09-04T16:34:13.373Z,25.72
2022-09-04T16:36:49.134Z,26.11
2022-09-04T16:39:32.765Z,25.88
2022-09-04T16:42:10.260Z,25.54
2022-09-04T16:44:45.392Z,25.45
2022-09-04T16:47:18.604Z,25.30
2022-09-04T16:50:18.025Z,25.83
2022-09-04T16:52:53.877Z,25.94
2022-09-04T16:56:15.048Z,25.78
2022-09-04T16:58:56.517Z,25.81
2022-09-04T17:01:46.655Z,25.91
2022-09-04T17:04:14.504Z,25.80
2022-09-04T17:07:08.627Z,25.57
2022-09-04T17:09:58.657Z,25.68
2022-09-04T17:12:42.011Z,25.63
2022-09-04T17:15:25.518Z,25.68
2022-09-04T17:17:54.332Z,25.47
2022-09-04T17:21:44.716Z,25.73
2022-09-04T17:29:00.868Z,25.39
2022-09-04T17:29:18.799Z,25.26
2022-09-04T17:29:41.694Z,25.30
2022-09-04T17:35:38.219Z,25.16
2022-09-04T17:40:43.286Z,25.28
2022-09-04T17:40:48.034Z,25.11
2022-09-04T17:41:47.350Z,25.56
2022-09-04T17:44:27.346Z,25.37
2022-09-04T17:47:04.529Z,25.09
2022-09-04T17:49:34.850Z,25.00
2022-09-04T17:52:08.633Z,25.11
2022-09-04T17:54:41.527Z,25.15
2022-09-04T17:57:18.544Z,25.03
2022-09-04T17:59:56.747Z,25.08
2022-09-04T18:02:44.721Z,25.03
2022-09-04T18:05:28.793Z,25.03
2022-09-04T18:08:16.358Z,24.99
2022-09-04T18:10:45.988Z,24.95
2022-09-04T18:13:36.885Z,24.92
2022-09-04T18:16:26.188Z,24.91
2022-09-04T18:18:55.273Z,24.91
2022-09-04T18:21:28.847Z,24.87
2022-09-04T18:24:17.724Z,24.85
2022-09-04T18:27:15.084Z,24.84
2022-09-04T18:34:48.812Z,24.83
2022-09-04T18:37:18.211Z,24.91
2022-09-04T18:37:26.561Z,24.87
2022-09-04T18:38:46.756Z,24.82
2022-09-04T18:47:26.698Z,24.75
2022-09-04T18:50:33.083Z,24.71
2022-09-04T18:50:50.303Z,24.69
2022-09-04T18:53:35.500Z,24.65
2022-09-04T18:56:20.225Z,24.64
2022-09-04T18:59:14.598Z,24.56
2022-09-04T19:01:58.397Z,24.65
2022-09-04T19:04:31.313Z,24.62
2022-09-04T19:07:19.083Z,24.65
2022-09-04T19:10:15.781Z,24.54
2022-09-04T19:12:53.765Z,24.52
2022-09-04T19:15:46.030Z,24.49
2022-09-04T19:18:56.021Z,24.45
2022-09-04T19:21:36.172Z,24.44
2022-09-04T19:24:34.271Z,24.46
2022-09-04T19:27:25.079Z,24.42
2022-09-04T19:30:17.568Z,24.40
2022-09-04T19:33:08.561Z,24.35
2022-09-04T19:35:46.587Z,24.34
2022-09-04T19:45:55.600Z,24.35
2022-09-04T19:46:05.990Z,24.30
2022-09-04T19:46:06.214Z,24.25
2022-09-04T19:47:45.176Z,24.23
2022-09-04T19:53:04.822Z,24.18
2022-09-04T19:53:40.491Z,24.16
2022-09-04T19:56:17.203Z,24.00
2022-09-04T19:58:56.905Z,24.08
2022-09-04T20:01:29.213Z,24.08
2022-09-04T20:04:08.573Z,24.29
2022-09-04T20:06:50.833Z,24.32
2022-09-04T20:09:26.371Z,24.20
2022-09-04T20:12:03.862Z,24.14
2022-09-04T20:14:45.797Z,24.16
2022-09-04T20:17:40.713Z,24.04
2022-09-04T20:20:30.150Z,24.12
2022-09-04T20:23:34.932Z,24.09
2022-09-04T20:26:03.577Z,23.92
2022-09-04T20:28:56.176Z,23.80
2022-09-04T20:31:36.708Z,23.72
2022-09-04T20:34:29.593Z,23.54
2022-09-04T20:37:22.544Z,23.47
2022-09-04T20:40:04.888Z,23.50
2022-09-04T20:42:42.460Z,23.46
2022-09-04T20:48:49.718Z,23.50
2022-09-04T20:52:53.305Z,23.52
2022-09-04T20:53:05.873Z,23.51
2022-09-04T20:54:38.893Z,23.47
2022-09-04T21:03:09.195Z,23.40
2022-09-04T21:03:09.791Z,23.39
2022-09-04T21:03:20.993Z,23.26
2022-09-04T21:06:25.948Z,23.34
2022-09-04T21:08:52.513Z,23.36
2022-09-04T21:11:52.056Z,23.15
2022-09-04T21:14:39.790Z,23.54
2022-09-04T21:17:35.995Z,23.53
2022-09-04T21:20:22.616Z,23.41
2022-09-04T21:23:24.199Z,23.15
2022-09-04T21:26:24.292Z,22.82
2022-09-04T21:29:21.616Z,22.81
2022-09-04T21:32:00.590Z,22.87
2022-09-04T21:35:10.096Z,22.96
2022-09-04T21:37:45.687Z,23.07
2022-09-04T21:40:42.248Z,23.13
2022-09-04T21:43:48.388Z,23.13
2022-09-04T21:46:41.298Z,23.14
2022-09-04T21:49:26.301Z,22.95
2022-09-04T21:52:21.475Z,22.83
2022-09-04T21:59:13.604Z,22.72
2022-09-04T22:02:32.574Z,22.70
2022-09-04T22:02:35.824Z,22.79
2022-09-04T22:04:28.997Z,22.85
2022-09-04T22:08:54.695Z,22.97
2022-09-04T22:13:38.391Z,23.06
2022-09-04T22:13:46.657Z,23.10
2022-09-04T22:15:58.247Z,23.09
2022-09-04T22:18:53.501Z,23.04
2022-09-04T22:21:29.634Z,23.02
2022-09-04T22:24:23.896Z,22.96
2022-09-04T22:27:11.905Z,22.99
2022-09-04T22:30:15.616Z,23.01
2022-09-04T22:33:16.151Z,22.96
2022-09-04T22:36:18.733Z,22.93
2022-09-04T22:39:31.438Z,22.84
2022-09-04T22:42:24.469Z,22.84
2022-09-04T22:45:12.700Z,22.85
2022-09-04T22:48:17.225Z,22.55
2022-09-04T22:51:09.137Z,22.53
2022-09-04T22:54:06.462Z,22.56
2022-09-04T22:56:46.829Z,22.66
2022-09-04T22:59:31.961Z,22.68
2022-09-04T23:07:28.005Z,22.68
2022-09-04T23:13:56.670Z,22.67
2022-09-04T23:13:57.901Z,22.69
2022-09-04T23:15:30.671Z,22.70
2022-09-04T23:19:01.796Z,22.71
2022-09-04T23:26:34.980Z,22.67
2022-09-04T23:26:58.514Z,22.68
2022-09-04T23:27:28.825Z,22.70
2022-09-04T23:30:10.371Z,22.71
2022-09-04T23:32:50.755Z,22.66
2022-09-04T23:35:46.238Z,22.57
2022-09-04T23:38:27.749Z,22.57
2022-09-04T23:41:03.898Z,22.56
2022-09-04T23:43:46.741Z,22.56
2022-09-04T23:46:42.803Z,22.52
2022-09-04T23:49:37.632Z,22.51
2022-09-04T23:52:14.776Z,22.46
2022-09-04T23:54:53.916Z,22.45
2022-09-04T23:57:41.971Z,22.41
